createdAt,value
2023-03-26T00:02:40.423Z,25.74
2023-03-26T00:05:32.085Z,25.72
2023-03-26T00:08:20.674Z,25.79
2023-03-26T00:11:10.850Z,25.72
2023-03-26T00:13:59.765Z,25.79
2023-03-26T00:16:49.948Z,25.64
2023-03-26T00:19:38.932Z,25.61
2023-03-26T00:22:29.251Z,25.63
2023-03-26T00:25:18.063Z,25.55
2023-03-26T00:28:07.631Z,25.46
2023-03-26T00:31:00.104Z,25.40
2023-03-26T00:33:48.753Z,25.46
2023-03-26T00:36:37.321Z,25.40
2023-03-26T00:39:29.198Z,25.34
2023-03-26T00:42:17.858Z,25.38
2023-03-26T00:45:07.701Z,25.35
2023-03-26T00:47:56.408Z,25.36
2023-03-26T00:50:47.201Z,25.34
2023-03-26T00:53:38.207Z,25.28
2023-03-26T00:56:30.813Z,25.32
2023-03-26T00:59:22.435Z,25.32
2023-03-26T01:02:17.228Z,25.22
2023-03-26T01:05:43.081Z,25.21
2023-03-26T01:08:34.968Z,25.22
2023-03-26T01:11:25.446Z,25.26
2023-03-26T01:14:18.369Z,25.29
2023-03-26T01:17:09.162Z,25.29
2023-03-26T01:20:12.365Z,25.28
2023-03-26T01:23:05.134Z,25.20
2023-03-26T01:25:59.711Z,25.11
2023-03-26T01:28:48.626Z,25.11
2023-03-26T01:31:41.561Z,25.09
2023-03-26T01:34:35.231Z,25.10
2023-03-26T01:37:28.154Z,25.14
2023-03-26T01:40:19.807Z,25.10
2023-03-26T01:43:15.586Z,25.09
2023-03-26T01:46:08.724Z,25.05
2023-03-26T01:48:57.411Z,25.04
2023-03-26T01:51:46.098Z,25.10
2023-03-26T01:54:35.223Z,25.01
2023-03-26T01:57:32.868Z,24.98
2023-03-26T02:00:27.830Z,24.96
2023-03-26T02:03:24.719Z,25.00
2023-03-26T02:06:18.331Z,24.99
2023-03-26T02:09:09.074Z,24.96
2023-03-26T02:11:57.741Z,24.95
2023-03-26T02:14:47.712Z,24.93
2023-03-26T02:17:40.353Z,24.95
2023-03-26T02:20:30.252Z,24.93
2023-03-26T02:23:18.897Z,24.93
2023-03-26T02:26:08.662Z,24.93
2023-03-26T02:28:57.920Z,24.99
2023-03-26T02:31:47.330Z,24.96
2023-03-26T02:34:37.703Z,24.93
2023-03-26T02:37:26.552Z,24.88
2023-03-26T02:40:15.135Z,24.95
2023-03-26T02:43:03.817Z,24.90
2023-03-26T02:45:52.678Z,24.92
2023-03-26T02:48:42.563Z,24.96
2023-03-26T02:51:34.840Z,24.91
2023-03-26T02:54:23.602Z,24.87
2023-03-26T02:57:12.261Z,24.89
2023-03-26T03:00:02.511Z,24.88
2023-03-26T03:02:52.764Z,24.85
2023-03-26T03:05:43.304Z,24.86
2023-03-26T03:08:34.065Z,24.91
2023-03-26T03:11:24.627Z,25.03
2023-03-26T03:14:13.244Z,25.03
2023-03-26T03:17:02.041Z,25.08
2023-03-26T03:19:50.668Z,25.15
2023-03-26T03:22:39.427Z,25.09
2023-03-26T03:25:29.386Z,25.08
2023-03-26T03:28:18.330Z,25.08
2023-03-26T03:31:09.043Z,25.00
2023-03-26T03:33:57.738Z,24.91
2023-03-26T03:36:48.411Z,24.92
2023-03-26T03:39:37.060Z,24.88
2023-03-26T03:42:27.469Z,24.94
2023-03-26T03:45:16.446Z,25.06
2023-03-26T03:48:05.416Z,24.98
2023-03-26T03:50:54.064Z,25.08
2023-03-26T03:53:46.361Z,25.15
2023-03-26T03:56:36.107Z,25.01
2023-03-26T03:59:26.619Z,25.07
2023-03-26T04:02:21.193Z,25.04
2023-03-26T04:05:11.706Z,25.06
2023-03-26T04:08:00.668Z,25.11
2023-03-26T04:10:49.560Z,25.08
2023-03-26T04:13:38.554Z,25.05
2023-03-26T04:16:28.679Z,25.11
2023-03-26T04:19:17.611Z,25.25
2023-03-26T04:22:07.736Z,25.18
2023-03-26T04:24:56.274Z,25.27
2023-03-26T04:27:45.044Z,25.23
2023-03-26T04:30:36.582Z,25.13
2023-03-26T04:33:28.388Z,25.21
2023-03-26T04:36:17.762Z,25.11
2023-03-26T04:39:06.844Z,25.20
2023-03-26T04:41:55.396Z,25.14
2023-03-26T04:44:44.023Z,25.07
2023-03-26T04:47:36.810Z,24.99
2023-03-26T04:50:27.653Z,24.97
2023-03-26T04:53:19.549Z,24.99
2023-03-26T04:56:13.620Z,25.00
2023-03-26T04:59:03.376Z,25.14
2023-03-26T05:01:52.722Z,25.19
2023-03-26T05:04:43.982Z,25.18
2023-03-26T05:07:35.789Z,25.13
2023-03-26T05:10:24.568Z,25.00
2023-03-26T05:13:13.202Z,25.14
2023-03-26T05:16:02.009Z,25.01
2023-03-26T05:18:51.548Z,25.11
2023-03-26T05:21:40.106Z,25.31
2023-03-26T05:24:30.462Z,25.22
2023-03-26T05:27:20.398Z,25.39
2023-03-26T05:30:10.064Z,25.54
2023-03-26T05:32:58.949Z,25.47
2023-03-26T05:35:49.465Z,25.52
2023-03-26T05:38:38.156Z,25.54
2023-03-26T05:41:28.252Z,25.47
2023-03-26T05:44:16.930Z,25.40
2023-03-26T05:47:05.894Z,25.38
2023-03-26T05:49:54.525Z,25.39
2023-03-26T05:52:45.600Z,25.29
2023-03-26T05:55:34.865Z,25.18
2023-03-26T05:58:25.205Z,25.18
2023-03-26T06:01:16.850Z,25.15
2023-03-26T06:04:05.677Z,25.19
2023-03-26T06:06:54.396Z,25.19
2023-03-26T06:09:43.685Z,25.25
2023-03-26T06:12:32.447Z,25.25
2023-03-26T06:15:22.595Z,25.18
2023-03-26T06:18:11.332Z,25.17
2023-03-26T06:21:00.769Z,25.16
2023-03-26T06:23:51.599Z,25.13
2023-03-26T06:26:40.313Z,25.12
2023-03-26T06:29:29.142Z,25.08
2023-03-26T06:32:20.315Z,25.07
2023-03-26T06:35:11.420Z,25.10
2023-03-26T06:38:00.718Z,25.13
2023-03-26T06:40:49.321Z,25.15
2023-03-26T06:43:39.111Z,25.04
2023-03-26T06:46:27.840Z,25.04
2023-03-26T06:49:18.846Z,25.14
2023-03-26T06:52:07.577Z,25.13
2023-03-26T06:54:56.305Z,25.16
2023-03-26T06:57:45.909Z,25.21
2023-03-26T07:00:35.788Z,25.19
2023-03-26T07:03:24.949Z,25.25
2023-03-26T07:06:16.167Z,25.23
2023-03-26T07:09:05.045Z,25.21
2023-03-26T07:11:53.720Z,25.16
2023-03-26T07:14:42.438Z,25.20
2023-03-26T07:17:31.242Z,25.18
2023-03-26T07:20:20.067Z,25.15
2023-03-26T07:23:12.122Z,25.20
2023-03-26T07:26:01.000Z,25.18
2023-03-26T07:29:04.770Z,25.26
2023-03-26T07:31:57.944Z,25.17
2023-03-26T07:34:53.081Z,25.18
2023-03-26T07:37:48.966Z,25.15
2023-03-26T07:40:47.564Z,25.14
2023-03-26T07:43:46.844Z,25.15
2023-03-26T07:46:37.101Z,25.22
2023-03-26T07:49:27.397Z,25.23
2023-03-26T07:52:16.615Z,25.22
2023-03-26T07:55:06.088Z,25.18
2023-03-26T07:58:08.448Z,25.20
2023-03-26T08:00:59.695Z,25.22
2023-03-26T08:04:24.145Z,25.22
2023-03-26T08:07:13.255Z,25.29
2023-03-26T08:10:08.260Z,25.29
2023-03-26T08:13:02.842Z,25.36
2023-03-26T08:15:57.774Z,25.30
2023-03-26T08:18:54.324Z,25.28
2023-03-26T08:21:48.001Z,25.32
2023-03-26T08:24:41.390Z,25.33
2023-03-26T08:27:39.147Z,25.31
2023-03-26T08:30:33.747Z,25.33
2023-03-26T08:33:23.576Z,25.33
2023-03-26T08:36:12.399Z,25.32
2023-03-26T08:39:01.340Z,25.32
2023-03-26T08:42:21.068Z,25.35
2023-03-26T08:45:30.567Z,25.31
2023-03-26T08:48:50.952Z,25.39
2023-03-26T08:52:03.414Z,25.28
2023-03-26T08:55:12.512Z,25.35
2023-03-26T08:58:20.428Z,25.34
2023-03-26T09:01:33.783Z,25.32
2023-03-26T09:04:35.423Z,25.40
2023-03-26T09:07:59.027Z,25.42
2023-03-26T09:10:53.691Z,25.35
2023-03-26T09:14:09.218Z,25.31
2023-03-26T09:17:21.387Z,25.45
2023-03-26T09:20:35.657Z,25.44
2023-03-26T09:23:56.229Z,25.51
2023-03-26T09:26:50.668Z,25.40
2023-03-26T09:30:16.885Z,25.46
2023-03-26T09:33:24.564Z,25.61
2023-03-26T09:36:36.233Z,25.98
2023-03-26T09:39:37.861Z,25.94
2023-03-26T09:42:34.088Z,25.96
2023-03-26T09:45:42.681Z,26.00
2023-03-26T09:48:54.138Z,26.06
2023-03-26T09:52:28.434Z,26.06
2023-03-26T09:55:35.770Z,26.15
2023-03-26T09:58:46.853Z,26.30
2023-03-26T10:01:40.809Z,26.29
2023-03-26T10:04:49.009Z,26.35
2023-03-26T10:07:49.357Z,26.41
2023-03-26T10:10:43.340Z,26.43
2023-03-26T10:13:36.460Z,26.47
2023-03-26T10:16:29.967Z,26.52
2023-03-26T10:19:41.749Z,26.60
2023-03-26T10:22:43.907Z,26.56
2023-03-26T10:25:52.808Z,26.55
2023-03-26T10:29:04.583Z,26.49
2023-03-26T10:31:55.745Z,26.52
2023-03-26T10:34:54.593Z,26.59
2023-03-26T10:37:56.034Z,26.69
2023-03-26T10:40:53.423Z,26.67
2023-03-26T10:44:32.291Z,26.68
2023-03-26T10:47:50.476Z,26.69
2023-03-26T10:50:56.313Z,26.73
2023-03-26T10:53:51.741Z,26.72
2023-03-26T10:56:42.571Z,26.63
2023-03-26T10:59:31.243Z,26.56
2023-03-26T11:02:29.142Z,26.50
2023-03-26T11:05:29.912Z,26.48
2023-03-26T11:08:31.563Z,26.76
2023-03-26T11:11:29.266Z,26.92
2023-03-26T11:14:33.712Z,26.98
2023-03-26T11:17:40.678Z,27.06
2023-03-26T11:20:38.076Z,27.01
2023-03-26T11:23:36.854Z,26.96
2023-03-26T11:26:31.714Z,27.14
2023-03-26T11:29:39.413Z,27.08
2023-03-26T11:32:33.064Z,27.18
2023-03-26T11:35:40.923Z,27.20
2023-03-26T11:38:37.899Z,27.24
2023-03-26T11:44:42.761Z,27.27
2023-03-26T11:47:37.687Z,27.23
2023-03-26T11:50:29.095Z,27.26
2023-03-26T11:53:20.534Z,27.21
2023-03-26T11:56:16.032Z,27.21
2023-03-26T11:59:11.511Z,27.12
2023-03-26T12:02:03.450Z,27.34
2023-03-26T12:04:55.822Z,27.38
2023-03-26T12:07:48.735Z,27.23
2023-03-26T12:10:39.181Z,27.27
2023-03-26T12:13:31.236Z,27.32
2023-03-26T12:16:23.458Z,27.29
2023-03-26T12:19:20.860Z,27.05
2023-03-26T12:22:30.617Z,26.83
2023-03-26T12:25:21.296Z,26.92
2023-03-26T12:28:19.401Z,26.89
2023-03-26T12:31:10.472Z,27.05
2023-03-26T12:34:11.694Z,27.11
2023-03-26T12:37:01.101Z,27.13
2023-03-26T12:40:07.500Z,27.18
2023-03-26T12:44:53.671Z,27.06
2023-03-26T12:47:57.291Z,27.06
2023-03-26T12:49:34.850Z,27.21
2023-03-26T12:52:43.341Z,27.25
2023-03-26T12:55:45.848Z,27.23
2023-03-26T12:58:54.982Z,27.24
2023-03-26T13:01:52.738Z,27.23
2023-03-26T13:05:06.062Z,27.25
2023-03-26T13:08:05.809Z,27.34
2023-03-26T13:10:57.736Z,26.78
2023-03-26T13:14:03.653Z,26.54
2023-03-26T13:16:58.519Z,26.67
2023-03-26T13:19:58.012Z,26.89
2023-03-26T13:22:55.351Z,27.03
2023-03-26T13:25:50.172Z,27.21
2023-03-26T13:28:52.025Z,27.27
2023-03-26T13:31:49.944Z,27.30
2023-03-26T13:34:46.350Z,27.25
2023-03-26T13:37:53.521Z,27.26
2023-03-26T13:40:51.973Z,27.26
2023-03-26T13:43:53.239Z,27.32
2023-03-26T13:46:44.401Z,27.35
2023-03-26T13:49:37.426Z,27.38
2023-03-26T13:52:29.379Z,27.42
2023-03-26T13:55:25.599Z,27.39
2023-03-26T13:58:19.588Z,27.44
2023-03-26T14:01:16.760Z,27.39
2023-03-26T14:04:27.300Z,27.66
2023-03-26T14:11:45.006Z,27.44
2023-03-26T14:14:40.045Z,27.65
2023-03-26T14:17:32.950Z,27.62
2023-03-26T14:20:56.393Z,27.59
2023-03-26T14:24:00.032Z,27.59
2023-03-26T14:27:00.233Z,27.54
2023-03-26T14:29:58.276Z,27.52
2023-03-26T14:32:56.003Z,27.51
2023-03-26T14:35:50.750Z,27.54
2023-03-26T14:39:11.041Z,27.58
2023-03-26T14:42:04.648Z,27.60
2023-03-26T14:45:21.513Z,27.58
2023-03-26T14:48:49.494Z,27.57
2023-03-26T14:51:52.211Z,27.52
2023-03-26T14:54:50.810Z,27.58
2023-03-26T14:58:04.803Z,27.56
2023-03-26T15:01:12.331Z,27.47
2023-03-26T15:04:30.610Z,27.49
2023-03-26T15:07:42.978Z,27.47
2023-03-26T15:11:16.257Z,27.56
2023-03-26T15:14:36.511Z,27.54
2023-03-26T15:17:44.992Z,27.47
2023-03-26T15:21:24.986Z,27.46
2023-03-26T15:24:46.501Z,27.49
2023-03-26T15:27:57.443Z,27.44
2023-03-26T15:31:11.476Z,27.21
2023-03-26T15:34:27.529Z,27.05
2023-03-26T15:37:47.922Z,27.11
2023-03-26T15:40:49.826Z,27.13
2023-03-26T15:44:24.922Z,27.35
2023-03-26T15:47:48.086Z,27.41
2023-03-26T15:50:47.553Z,27.40
2023-03-26T15:53:42.420Z,27.51
2023-03-26T15:56:44.754Z,27.60
2023-03-26T15:59:42.514Z,27.64
2023-03-26T16:02:40.519Z,27.68
2023-03-26T16:05:47.671Z,27.68
2023-03-26T16:08:41.161Z,27.66
2023-03-26T16:11:54.709Z,27.67
2023-03-26T16:14:46.943Z,27.67
2023-03-26T16:18:10.294Z,27.56
2023-03-26T16:21:47.913Z,27.67
2023-03-26T16:24:40.969Z,27.58
2023-03-26T16:27:41.793Z,27.59
2023-03-26T16:30:33.514Z,27.61
2023-03-26T16:33:29.493Z,27.47
2023-03-26T16:36:34.450Z,27.38
2023-03-26T16:39:27.535Z,27.31
2023-03-26T16:42:32.392Z,27.51
2023-03-26T16:45:24.435Z,27.15
2023-03-26T16:48:23.922Z,27.29
2023-03-26T16:51:17.275Z,27.28
2023-03-26T16:54:14.489Z,27.22
2023-03-26T16:57:13.774Z,27.27
2023-03-26T17:00:24.853Z,26.99
2023-03-26T17:03:29.166Z,26.75
2023-03-26T17:06:48.767Z,26.71
2023-03-26T17:09:44.892Z,26.79
2023-03-26T17:12:40.152Z,26.65
2023-03-26T17:15:37.985Z,26.61
2023-03-26T17:18:35.047Z,26.60
2023-03-26T17:21:28.937Z,26.49
2023-03-26T17:24:41.822Z,26.64
2023-03-26T17:27:36.262Z,26.82
2023-03-26T17:30:56.829Z,26.83
2023-03-26T17:33:46.179Z,26.86
2023-03-26T17:36:45.998Z,26.70
2023-03-26T17:40:36.888Z,26.80
2023-03-26T17:43:45.551Z,26.77
2023-03-26T17:46:36.321Z,26.86
2023-03-26T17:49:31.155Z,26.71
2023-03-26T17:52:22.511Z,26.51
2023-03-26T17:55:11.732Z,26.38
2023-03-26T17:58:01.546Z,26.35
2023-03-26T18:00:57.164Z,26.55
2023-03-26T18:03:49.505Z,26.42
2023-03-26T18:06:51.776Z,26.38
2023-03-26T18:09:53.092Z,26.54
2023-03-26T18:12:52.023Z,26.55
2023-03-26T18:15:53.554Z,26.54
2023-03-26T18:18:48.590Z,26.51
2023-03-26T18:21:39.202Z,26.39
2023-03-26T18:24:30.507Z,26.30
2023-03-26T18:27:22.322Z,26.25
2023-03-26T18:30:18.721Z,26.39
2023-03-26T18:33:15.393Z,26.37
2023-03-26T18:36:04.876Z,26.50
2023-03-26T18:38:58.537Z,26.35
2023-03-26T18:41:47.172Z,26.37
2023-03-26T18:44:37.707Z,26.33
2023-03-26T18:47:26.498Z,26.36
2023-03-26T18:50:20.717Z,26.36
2023-03-26T18:53:15.727Z,26.39
2023-03-26T18:56:20.166Z,26.53
2023-03-26T18:59:21.719Z,26.69
2023-03-26T19:02:14.277Z,26.63
2023-03-26T19:05:03.780Z,26.54
2023-03-26T19:07:56.760Z,26.60
2023-03-26T19:10:48.071Z,26.61
2023-03-26T19:13:38.424Z,26.70
2023-03-26T19:16:29.928Z,26.65
2023-03-26T19:19:20.632Z,26.63
2023-03-26T19:22:11.424Z,26.58
2023-03-26T19:25:04.586Z,26.52
2023-03-26T19:27:55.918Z,26.46
2023-03-26T19:30:44.939Z,26.42
2023-03-26T19:33:36.474Z,26.45
2023-03-26T19:36:29.564Z,26.43
2023-03-26T19:39:27.238Z,26.42
2023-03-26T19:42:27.623Z,26.41
2023-03-26T19:45:36.061Z,26.34
2023-03-26T19:48:25.752Z,26.40
2023-03-26T19:51:36.136Z,26.32
2023-03-26T19:54:25.201Z,26.33
2023-03-26T19:57:15.692Z,26.36
2023-03-26T20:00:13.692Z,26.32
2023-03-26T20:03:04.110Z,26.28
2023-03-26T20:05:53.081Z,26.32
2023-03-26T20:08:43.105Z,26.48
2023-03-26T20:11:34.313Z,26.64
2023-03-26T20:14:25.967Z,26.62
2023-03-26T20:17:17.933Z,26.47
2023-03-26T20:20:12.135Z,26.50
2023-03-26T20:23:01.541Z,26.59
2023-03-26T20:25:53.865Z,26.56
2023-03-26T20:28:48.437Z,26.68
2023-03-26T20:31:38.319Z,26.61
2023-03-26T20:34:28.727Z,26.70
2023-03-26T20:37:18.005Z,26.57
2023-03-26T20:40:09.276Z,26.62
2023-03-26T20:42:57.933Z,26.61
2023-03-26T20:45:46.832Z,26.65
2023-03-26T20:48:35.606Z,27.10
2023-03-26T20:51:28.486Z,27.24
2023-03-26T20:54:20.207Z,27.38
2023-03-26T20:57:11.987Z,27.43
2023-03-26T21:00:01.403Z,27.68
2023-03-26T21:02:53.261Z,27.71
2023-03-26T21:05:42.919Z,27.66
2023-03-26T21:08:35.616Z,27.72
2023-03-26T21:11:41.658Z,27.61
2023-03-26T21:14:34.426Z,27.64
2023-03-26T21:17:24.582Z,27.55
2023-03-26T21:20:16.710Z,27.72
2023-03-26T21:23:09.931Z,27.44
2023-03-26T21:26:06.454Z,27.34
2023-03-26T21:28:55.350Z,27.22
2023-03-26T21:31:44.610Z,26.81
2023-03-26T21:34:34.223Z,26.76
2023-03-26T21:37:24.185Z,26.71
2023-03-26T21:40:17.944Z,26.65
2023-03-26T21:43:08.986Z,26.67
2023-03-26T21:45:58.436Z,26.55
2023-03-26T21:48:48.071Z,26.53
2023-03-26T21:51:37.921Z,26.45
2023-03-26T21:54:28.468Z,26.43
2023-03-26T21:57:42.494Z,26.46
2023-03-26T22:00:43.465Z,26.38
2023-03-26T22:03:36.474Z,26.35
2023-03-26T22:06:31.325Z,26.31
2023-03-26T22:09:26.577Z,26.31
2023-03-26T22:12:25.524Z,26.30
2023-03-26T22:15:14.773Z,26.31
2023-03-26T22:18:07.197Z,26.29
2023-03-26T22:20:56.090Z,26.26
2023-03-26T22:23:50.046Z,26.30
2023-03-26T22:26:38.965Z,26.38
2023-03-26T22:29:27.942Z,26.30
2023-03-26T22:32:16.697Z,26.21
2023-03-26T22:35:07.380Z,26.24
2023-03-26T22:38:00.865Z,26.18
2023-03-26T22:40:59.739Z,26.20
2023-03-26T22:43:48.377Z,26.25
2023-03-26T22:46:38.713Z,26.21
2023-03-26T22:49:30.102Z,26.14
2023-03-26T22:52:20.372Z,26.15
2023-03-26T22:55:10.999Z,26.14
2023-03-26T22:57:59.652Z,26.04
2023-03-26T23:00:51.698Z,26.08
2023-03-26T23:03:41.604Z,26.04
2023-03-26T23:06:31.552Z,26.16
2023-03-26T23:09:21.870Z,26.23
2023-03-26T23:12:10.703Z,26.25
2023-03-26T23:14:59.409Z,26.18
2023-03-26T23:17:54.177Z,26.26
2023-03-26T23:20:43.472Z,26.23
2023-03-26T23:23:33.755Z,26.28
2023-03-26T23:26:24.150Z,26.24
2023-03-26T23:29:13.840Z,26.23
2023-03-26T23:32:02.806Z,26.17
2023-03-26T23:34:52.084Z,26.16
2023-03-26T23:37:42.535Z,26.23
2023-03-26T23:40:32.300Z,26.14
2023-03-26T23:43:22.660Z,26.16
2023-03-26T23:46:17.728Z,26.16
2023-03-26T23:49:07.427Z,26.14
2023-03-26T23:51:56.065Z,26.10
2023-03-26T23:54:44.663Z,26.17
2023-03-26T23:57:35.399Z,26.11
